sensor_id;sensor_type;location;lat;lon;timestamp;P1;durP1;ratioP1;P2;durP2;ratioP2
29162;SDS011;20331;53.144;8.208;2024-03-02T00:02:59;12.45;;;8.80;;
29162;SDS011;20331;53.144;8.208;2024-03-02T00:08:24;15.85;;;9.07;;
29162;SDS011;20331;53.144;8.208;2024-03-02T00:13:52;13.23;;;8.63;;
29162;SDS011;20331;53.144;8.208;2024-03-02T00:19:15;14.40;;;9.45;;
29162;SDS011;20331;53.144;8.208;2024-03-02T00:24:37;14.23;;;9.77;;
29162;SDS011;20331;53.144;8.208;2024-03-02T00:30:00;12.43;;;8.32;;
29162;SDS011;20331;53.144;8.208;2024-03-02T00:35:27;13.27;;;9.48;;
29162;SDS011;20331;53.144;8.208;2024-03-02T00:40:49;13.35;;;8.98;;
29162;SDS011;20331;53.144;8.208;2024-03-02T00:46:18;11.90;;;8.43;;
29162;SDS011;20331;53.144;8.208;2024-03-02T00:51:41;13.88;;;8.68;;
29162;SDS011;20331;53.144;8.208;2024-03-02T00:57:03;12.63;;;8.48;;
29162;SDS011;20331;53.144;8.208;2024-03-02T01:02:26;12.50;;;8.30;;
29162;SDS011;20331;53.144;8.208;2024-03-02T01:07:48;14.32;;;9.35;;
29162;SDS011;20331;53.144;8.208;2024-03-02T01:13:09;15.18;;;8.32;;
29162;SDS011;20331;53.144;8.208;2024-03-02T01:18:31;12.43;;;8.40;;
29162;SDS011;20331;53.144;8.208;2024-03-02T01:23:53;12.48;;;8.15;;
29162;SDS011;20331;53.144;8.208;2024-03-02T01:29:15;12.10;;;7.70;;
29162;SDS011;20331;53.144;8.208;2024-03-02T01:34:36;14.90;;;8.77;;
29162;SDS011;20331;53.144;8.208;2024-03-02T01:39:58;12.40;;;8.25;;
29162;SDS011;20331;53.144;8.208;2024-03-02T01:45:20;15.27;;;8.75;;
29162;SDS011;20331;53.144;8.208;2024-03-02T01:50:42;12.18;;;8.75;;
29162;SDS011;20331;53.144;8.208;2024-03-02T01:56:04;14.10;;;9.10;;
29162;SDS011;20331;53.144;8.208;2024-03-02T02:01:26;12.70;;;8.90;;
29162;SDS011;20331;53.144;8.208;2024-03-02T02:06:48;12.70;;;8.45;;
29162;SDS011;20331;53.144;8.208;2024-03-02T02:12:10;11.50;;;8.82;;
29162;SDS011;20331;53.144;8.208;2024-03-02T02:17:32;13.63;;;8.45;;
29162;SDS011;20331;53.144;8.208;2024-03-02T02:28:16;12.55;;;8.38;;
29162;SDS011;20331;53.144;8.208;2024-03-02T02:33:41;11.75;;;8.30;;
29162;SDS011;20331;53.144;8.208;2024-03-02T02:39:04;14.40;;;8.38;;
29162;SDS011;20331;53.144;8.208;2024-03-02T02:44:29;11.45;;;7.97;;
29162;SDS011;20331;53.144;8.208;2024-03-02T02:49:50;12.45;;;8.60;;
29162;SDS011;20331;53.144;8.208;2024-03-02T02:55:12;12.18;;;8.00;;
29162;SDS011;20331;53.144;8.208;2024-03-02T03:00:35;12.60;;;8.48;;
29162;SDS011;20331;53.144;8.208;2024-03-02T03:05:57;11.77;;;7.93;;
29162;SDS011;20331;53.144;8.208;2024-03-02T03:11:19;11.52;;;8.48;;
29162;SDS011;20331;53.144;8.208;2024-03-02T03:16:41;13.43;;;8.85;;
29162;SDS011;20331;53.144;8.208;2024-03-02T03:22:02;14.02;;;8.30;;
29162;SDS011;20331;53.144;8.208;2024-03-02T03:27:25;11.88;;;8.30;;
29162;SDS011;20331;53.144;8.208;2024-03-02T03:32:47;11.20;;;8.02;;
29162;SDS011;20331;53.144;8.208;2024-03-02T03:38:09;11.55;;;8.30;;
29162;SDS011;20331;53.144;8.208;2024-03-02T03:43:31;12.35;;;8.75;;
29162;SDS011;20331;53.144;8.208;2024-03-02T03:48:53;13.75;;;9.32;;
29162;SDS011;20331;53.144;8.208;2024-03-02T03:54:14;11.98;;;8.05;;
29162;SDS011;20331;53.144;8.208;2024-03-02T03:59:36;11.55;;;8.40;;
29162;SDS011;20331;53.144;8.208;2024-03-02T04:04:58;11.35;;;8.50;;
29162;SDS011;20331;53.144;8.208;2024-03-02T04:10:20;10.95;;;8.95;;
29162;SDS011;20331;53.144;8.208;2024-03-02T04:15:43;13.85;;;9.82;;
29162;SDS011;20331;53.144;8.208;2024-03-02T04:21:04;13.57;;;9.68;;
29162;SDS011;20331;53.144;8.208;2024-03-02T04:26:26;11.77;;;8.85;;
29162;SDS011;20331;53.144;8.208;2024-03-02T04:31:48;11.20;;;8.70;;
29162;SDS011;20331;53.144;8.208;2024-03-02T04:37:10;13.35;;;9.05;;
29162;SDS011;20331;53.144;8.208;2024-03-02T04:42:33;12.43;;;9.15;;
29162;SDS011;20331;53.144;8.208;2024-03-02T04:47:55;13.93;;;9.35;;
29162;SDS011;20331;53.144;8.208;2024-03-02T04:53:17;12.85;;;9.52;;
29162;SDS011;20331;53.144;8.208;2024-03-02T04:58:38;14.27;;;9.57;;
29162;SDS011;20331;53.144;8.208;2024-03-02T05:04:00;14.35;;;10.00;;
29162;SDS011;20331;53.144;8.208;2024-03-02T05:09:22;12.90;;;9.48;;
29162;SDS011;20331;53.144;8.208;2024-03-02T05:14:44;12.82;;;8.98;;
29162;SDS011;20331;53.144;8.208;2024-03-02T05:20:07;12.32;;;9.07;;
29162;SDS011;20331;53.144;8.208;2024-03-02T05:25:29;12.23;;;9.23;;
29162;SDS011;20331;53.144;8.208;2024-03-02T05:30:51;13.80;;;9.30;;
29162;SDS011;20331;53.144;8.208;2024-03-02T05:36:13;16.08;;;10.07;;
29162;SDS011;20331;53.144;8.208;2024-03-02T05:41:35;14.25;;;9.68;;
29162;SDS011;20331;53.144;8.208;2024-03-02T05:46:57;13.10;;;9.23;;
29162;SDS011;20331;53.144;8.208;2024-03-02T05:52:19;13.82;;;8.90;;
29162;SDS011;20331;53.144;8.208;2024-03-02T05:57:42;11.93;;;9.23;;
29162;SDS011;20331;53.144;8.208;2024-03-02T06:03:17;12.40;;;9.23;;
29162;SDS011;20331;53.144;8.208;2024-03-02T06:08:38;13.43;;;9.45;;
29162;SDS011;20331;53.144;8.208;2024-03-02T06:14:00;11.65;;;8.45;;
29162;SDS011;20331;53.144;8.208;2024-03-02T06:19:22;12.98;;;8.45;;
29162;SDS011;20331;53.144;8.208;2024-03-02T06:24:43;11.70;;;8.85;;
29162;SDS011;20331;53.144;8.208;2024-03-02T06:30:06;13.32;;;9.00;;
29162;SDS011;20331;53.144;8.208;2024-03-02T06:35:28;14.10;;;9.10;;
29162;SDS011;20331;53.144;8.208;2024-03-02T06:40:50;13.02;;;8.98;;
29162;SDS011;20331;53.144;8.208;2024-03-02T06:46:12;14.98;;;10.10;;
29162;SDS011;20331;53.144;8.208;2024-03-02T06:51:36;13.57;;;8.85;;
29162;SDS011;20331;53.144;8.208;2024-03-02T06:57:01;13.52;;;9.77;;
29162;SDS011;20331;53.144;8.208;2024-03-02T07:02:22;14.18;;;9.48;;
29162;SDS011;20331;53.144;8.208;2024-03-02T07:07:44;14.63;;;10.13;;
29162;SDS011;20331;53.144;8.208;2024-03-02T07:13:06;14.07;;;9.52;;
29162;SDS011;20331;53.144;8.208;2024-03-02T07:18:28;15.82;;;10.13;;
29162;SDS011;20331;53.144;8.208;2024-03-02T07:23:50;13.10;;;10.05;;
29162;SDS011;20331;53.144;8.208;2024-03-02T07:29:12;15.70;;;11.25;;
29162;SDS011;20331;53.144;8.208;2024-03-02T07:34:34;16.08;;;10.93;;
29162;SDS011;20331;53.144;8.208;2024-03-02T07:39:56;16.48;;;10.82;;
29162;SDS011;20331;53.144;8.208;2024-03-02T07:45:18;16.27;;;10.98;;
29162;SDS011;20331;53.144;8.208;2024-03-02T07:50:41;18.20;;;11.00;;
29162;SDS011;20331;53.144;8.208;2024-03-02T07:56:03;15.88;;;11.18;;
29162;SDS011;20331;53.144;8.208;2024-03-02T08:01:25;15.93;;;11.45;;
29162;SDS011;20331;53.144;8.208;2024-03-02T08:06:47;17.83;;;11.55;;
29162;SDS011;20331;53.144;8.208;2024-03-02T08:12:09;17.42;;;11.45;;
29162;SDS011;20331;53.144;8.208;2024-03-02T08:17:31;16.25;;;11.05;;
29162;SDS011;20331;53.144;8.208;2024-03-02T08:22:55;15.18;;;10.75;;
29162;SDS011;20331;53.144;8.208;2024-03-02T08:28:17;17.10;;;11.73;;
29162;SDS011;20331;53.144;8.208;2024-03-02T08:33:38;15.52;;;11.65;;
29162;SDS011;20331;53.144;8.208;2024-03-02T08:39:01;16.75;;;11.10;;
29162;SDS011;20331;53.144;8.208;2024-03-02T08:44:24;15.90;;;11.05;;
29162;SDS011;20331;53.144;8.208;2024-03-02T08:49:46;15.02;;;9.98;;
29162;SDS011;20331;53.144;8.208;2024-03-02T08:55:08;14.32;;;10.07;;
29162;SDS011;20331;53.144;8.208;2024-03-02T09:00:30;15.73;;;9.95;;
29162;SDS011;20331;53.144;8.208;2024-03-02T09:05:52;15.48;;;9.23;;
29162;SDS011;20331;53.144;8.208;2024-03-02T09:11:13;15.30;;;9.30;;
29162;SDS011;20331;53.144;8.208;2024-03-02T09:16:35;13.20;;;8.63;;
29162;SDS011;20331;53.144;8.208;2024-03-02T09:21:57;11.50;;;8.07;;
29162;SDS011;20331;53.144;8.208;2024-03-02T09:27:20;10.38;;;8.00;;
29162;SDS011;20331;53.144;8.208;2024-03-02T09:32:42;11.45;;;8.18;;
29162;SDS011;20331;53.144;8.208;2024-03-02T09:38:05;14.00;;;8.73;;
29162;SDS011;20331;53.144;8.208;2024-03-02T09:43:28;11.90;;;7.65;;
29162;SDS011;20331;53.144;8.208;2024-03-02T09:48:50;12.48;;;7.72;;
29162;SDS011;20331;53.144;8.208;2024-03-02T09:54:11;14.52;;;7.22;;
29162;SDS011;20331;53.144;8.208;2024-03-02T09:59:43;11.90;;;7.07;;
29162;SDS011;20331;53.144;8.208;2024-03-02T10:05:06;10.90;;;6.70;;
29162;SDS011;20331;53.144;8.208;2024-03-02T10:10:38;10.43;;;6.25;;
29162;SDS011;20331;53.144;8.208;2024-03-02T10:16:11;9.15;;;5.65;;
29162;SDS011;20331;53.144;8.208;2024-03-02T10:21:33;9.32;;;5.03;;
29162;SDS011;20331;53.144;8.208;2024-03-02T10:26:55;8.15;;;4.70;;
29162;SDS011;20331;53.144;8.208;2024-03-02T10:32:18;6.82;;;4.57;;
29162;SDS011;20331;53.144;8.208;2024-03-02T10:37:39;6.97;;;4.68;;
29162;SDS011;20331;53.144;8.208;2024-03-02T10:43:01;7.38;;;4.80;;
29162;SDS011;20331;53.144;8.208;2024-03-02T10:48:27;6.45;;;3.92;;
29162;SDS011;20331;53.144;8.208;2024-03-02T10:53:50;6.50;;;4.22;;
29162;SDS011;20331;53.144;8.208;2024-03-02T10:59:16;5.68;;;3.88;;
29162;SDS011;20331;53.144;8.208;2024-03-02T11:04:43;6.20;;;4.20;;
29162;SDS011;20331;53.144;8.208;2024-03-02T11:10:09;6.17;;;3.80;;
29162;SDS011;20331;53.144;8.208;2024-03-02T11:15:31;7.53;;;3.90;;
29162;SDS011;20331;53.144;8.208;2024-03-02T11:20:56;6.50;;;3.60;;
29162;SDS011;20331;53.144;8.208;2024-03-02T11:26:22;6.35;;;4.20;;
29162;SDS011;20331;53.144;8.208;2024-03-02T11:31:57;5.22;;;3.80;;
29162;SDS011;20331;53.144;8.208;2024-03-02T11:37:23;5.85;;;3.95;;
29162;SDS011;20331;53.144;8.208;2024-03-02T11:42:46;5.13;;;4.00;;
29162;SDS011;20331;53.144;8.208;2024-03-02T11:48:08;6.63;;;4.20;;
29162;SDS011;20331;53.144;8.208;2024-03-02T11:53:34;7.05;;;4.68;;
29162;SDS011;20331;53.144;8.208;2024-03-02T11:58:59;8.27;;;4.93;;
29162;SDS011;20331;53.144;8.208;2024-03-02T12:04:23;10.40;;;4.75;;
29162;SDS011;20331;53.144;8.208;2024-03-02T12:09:45;6.85;;;5.28;;
29162;SDS011;20331;53.144;8.208;2024-03-02T12:15:07;6.60;;;4.78;;
29162;SDS011;20331;53.144;8.208;2024-03-02T12:20:29;7.68;;;4.40;;
29162;SDS011;20331;53.144;8.208;2024-03-02T12:25:52;7.18;;;5.00;;
29162;SDS011;20331;53.144;8.208;2024-03-02T12:31:14;10.25;;;5.07;;
29162;SDS011;20331;53.144;8.208;2024-03-02T12:36:37;8.70;;;5.30;;
29162;SDS011;20331;53.144;8.208;2024-03-02T12:42:02;10.63;;;5.45;;
29162;SDS011;20331;53.144;8.208;2024-03-02T12:47:24;7.95;;;4.65;;
29162;SDS011;20331;53.144;8.208;2024-03-02T12:52:55;5.72;;;4.10;;
29162;SDS011;20331;53.144;8.208;2024-03-02T12:58:21;6.63;;;4.47;;
29162;SDS011;20331;53.144;8.208;2024-03-02T13:03:44;7.05;;;4.15;;
29162;SDS011;20331;53.144;8.208;2024-03-02T13:09:06;5.10;;;3.60;;
29162;SDS011;20331;53.144;8.208;2024-03-02T13:14:37;5.18;;;3.85;;
29162;SDS011;20331;53.144;8.208;2024-03-02T13:20:06;5.05;;;3.55;;
29162;SDS011;20331;53.144;8.208;2024-03-02T13:25:32;5.00;;;3.60;;
29162;SDS011;20331;53.144;8.208;2024-03-02T13:30:54;8.27;;;3.83;;
29162;SDS011;20331;53.144;8.208;2024-03-02T13:36:16;4.95;;;3.30;;
29162;SDS011;20331;53.144;8.208;2024-03-02T13:41:39;5.18;;;3.30;;
29162;SDS011;20331;53.144;8.208;2024-03-02T13:47:01;5.72;;;3.28;;
29162;SDS011;20331;53.144;8.208;2024-03-02T13:52:22;6.22;;;3.83;;
29162;SDS011;20331;53.144;8.208;2024-03-02T13:57:44;5.63;;;4.15;;
29162;SDS011;20331;53.144;8.208;2024-03-02T14:03:08;6.45;;;3.97;;
29162;SDS011;20331;53.144;8.208;2024-03-02T14:08:30;6.35;;;4.10;;
29162;SDS011;20331;53.144;8.208;2024-03-02T14:13:52;5.10;;;3.45;;
29162;SDS011;20331;53.144;8.208;2024-03-02T14:19:16;6.10;;;4.13;;
29162;SDS011;20331;53.144;8.208;2024-03-02T14:24:37;7.68;;;4.55;;
29162;SDS011;20331;53.144;8.208;2024-03-02T14:29:59;7.90;;;4.78;;
29162;SDS011;20331;53.144;8.208;2024-03-02T14:35:21;8.18;;;4.97;;
29162;SDS011;20331;53.144;8.208;2024-03-02T14:40:44;8.80;;;5.20;;
29162;SDS011;20331;53.144;8.208;2024-03-02T14:46:06;7.20;;;5.28;;
29162;SDS011;20331;53.144;8.208;2024-03-02T14:51:31;9.90;;;5.97;;
29162;SDS011;20331;53.144;8.208;2024-03-02T14:56:52;16.05;;;6.57;;
29162;SDS011;20331;53.144;8.208;2024-03-02T15:02:14;8.77;;;5.80;;
29162;SDS011;20331;53.144;8.208;2024-03-02T15:07:36;9.38;;;6.03;;
29162;SDS011;20331;53.144;8.208;2024-03-02T15:12:58;8.23;;;5.75;;
29162;SDS011;20331;53.144;8.208;2024-03-02T15:18:20;7.93;;;5.68;;
29162;SDS011;20331;53.144;8.208;2024-03-02T15:23:41;8.25;;;5.90;;
29162;SDS011;20331;53.144;8.208;2024-03-02T15:29:03;9.90;;;5.53;;
29162;SDS011;20331;53.144;8.208;2024-03-02T15:34:25;41.20;;;12.43;;
29162;SDS011;20331;53.144;8.208;2024-03-02T15:39:48;7.75;;;5.32;;
29162;SDS011;20331;53.144;8.208;2024-03-02T15:45:10;7.60;;;4.95;;
29162;SDS011;20331;53.144;8.208;2024-03-02T15:50:32;8.23;;;5.47;;
29162;SDS011;20331;53.144;8.208;2024-03-02T15:55:54;8.48;;;5.07;;
29162;SDS011;20331;53.144;8.208;2024-03-02T16:01:15;7.25;;;4.95;;
29162;SDS011;20331;53.144;8.208;2024-03-02T16:06:37;10.90;;;4.95;;
29162;SDS011;20331;53.144;8.208;2024-03-02T16:11:59;7.00;;;4.75;;
29162;SDS011;20331;53.144;8.208;2024-03-02T16:17:21;6.72;;;4.95;;
29162;SDS011;20331;53.144;8.208;2024-03-02T16:22:43;6.43;;;4.60;;
29162;SDS011;20331;53.144;8.208;2024-03-02T16:28:04;8.38;;;5.55;;
29162;SDS011;20331;53.144;8.208;2024-03-02T16:33:27;8.68;;;5.97;;
29162;SDS011;20331;53.144;8.208;2024-03-02T16:38:48;7.35;;;5.40;;
29162;SDS011;20331;53.144;8.208;2024-03-02T16:44:10;6.72;;;4.80;;
29162;SDS011;20331;53.144;8.208;2024-03-02T16:49:32;10.70;;;5.13;;
29162;SDS011;20331;53.144;8.208;2024-03-02T16:54:54;7.25;;;4.97;;
29162;SDS011;20331;53.144;8.208;2024-03-02T17:00:17;7.90;;;4.72;;
29162;SDS011;20331;53.144;8.208;2024-03-02T17:05:39;7.68;;;4.90;;
29162;SDS011;20331;53.144;8.208;2024-03-02T17:11:01;9.82;;;5.47;;
29162;SDS011;20331;53.144;8.208;2024-03-02T17:16:25;8.57;;;5.80;;
29162;SDS011;20331;53.144;8.208;2024-03-02T17:21:47;8.90;;;5.85;;
29162;SDS011;20331;53.144;8.208;2024-03-02T17:27:09;9.20;;;5.80;;
29162;SDS011;20331;53.144;8.208;2024-03-02T17:32:31;12.95;;;6.35;;
29162;SDS011;20331;53.144;8.208;2024-03-02T17:37:53;10.52;;;6.57;;
29162;SDS011;20331;53.144;8.208;2024-03-02T17:43:15;9.85;;;5.97;;
29162;SDS011;20331;53.144;8.208;2024-03-02T17:48:37;8.40;;;5.60;;
29162;SDS011;20331;53.144;8.208;2024-03-02T17:53:58;8.10;;;5.50;;
29162;SDS011;20331;53.144;8.208;2024-03-02T17:59:20;9.10;;;5.72;;
29162;SDS011;20331;53.144;8.208;2024-03-02T18:04:42;8.00;;;5.13;;
29162;SDS011;20331;53.144;8.208;2024-03-02T18:10:05;10.25;;;5.18;;
29162;SDS011;20331;53.144;8.208;2024-03-02T18:15:27;7.10;;;5.07;;
29162;SDS011;20331;53.144;8.208;2024-03-02T18:20:49;9.88;;;5.70;;
29162;SDS011;20331;53.144;8.208;2024-03-02T18:26:11;9.00;;;5.82;;
29162;SDS011;20331;53.144;8.208;2024-03-02T18:31:33;11.75;;;6.72;;
29162;SDS011;20331;53.144;8.208;2024-03-02T18:36:54;10.60;;;6.95;;
29162;SDS011;20331;53.144;8.208;2024-03-02T18:42:19;12.38;;;7.45;;
29162;SDS011;20331;53.144;8.208;2024-03-02T18:47:40;13.95;;;7.75;;
29162;SDS011;20331;53.144;8.208;2024-03-02T18:53:02;14.15;;;8.40;;
29162;SDS011;20331;53.144;8.208;2024-03-02T18:58:24;15.48;;;7.65;;
29162;SDS011;20331;53.144;8.208;2024-03-02T19:03:46;12.88;;;7.55;;
29162;SDS011;20331;53.144;8.208;2024-03-02T19:09:08;15.45;;;7.18;;
29162;SDS011;20331;53.144;8.208;2024-03-02T19:14:31;10.73;;;7.55;;
29162;SDS011;20331;53.144;8.208;2024-03-02T19:19:53;10.90;;;7.57;;
29162;SDS011;20331;53.144;8.208;2024-03-02T19:25:15;13.02;;;7.68;;
29162;SDS011;20331;53.144;8.208;2024-03-02T19:30:37;11.75;;;7.28;;
29162;SDS011;20331;53.144;8.208;2024-03-02T19:35:59;13.13;;;7.38;;
29162;SDS011;20331;53.144;8.208;2024-03-02T19:41:20;9.73;;;6.15;;
29162;SDS011;20331;53.144;8.208;2024-03-02T19:46:43;11.07;;;6.63;;
29162;SDS011;20331;53.144;8.208;2024-03-02T19:52:05;10.05;;;6.20;;
29162;SDS011;20331;53.144;8.208;2024-03-02T19:57:27;10.98;;;6.93;;
29162;SDS011;20331;53.144;8.208;2024-03-02T20:02:50;10.18;;;6.45;;
29162;SDS011;20331;53.144;8.208;2024-03-02T20:08:12;15.82;;;7.05;;
29162;SDS011;20331;53.144;8.208;2024-03-02T20:13:34;10.57;;;7.18;;
29162;SDS011;20331;53.144;8.208;2024-03-02T20:18:56;9.60;;;6.78;;
29162;SDS011;20331;53.144;8.208;2024-03-02T20:24:18;11.70;;;8.23;;
29162;SDS011;20331;53.144;8.208;2024-03-02T20:29:41;11.05;;;6.82;;
29162;SDS011;20331;53.144;8.208;2024-03-02T20:35:03;12.68;;;6.53;;
29162;SDS011;20331;53.144;8.208;2024-03-02T20:40:25;9.55;;;6.10;;
29162;SDS011;20331;53.144;8.208;2024-03-02T20:45:49;12.02;;;6.90;;
29162;SDS011;20331;53.144;8.208;2024-03-02T20:51:11;9.65;;;6.82;;
29162;SDS011;20331;53.144;8.208;2024-03-02T20:56:32;11.07;;;6.72;;
29162;SDS011;20331;53.144;8.208;2024-03-02T21:01:57;12.73;;;6.25;;
29162;SDS011;20331;53.144;8.208;2024-03-02T21:07:19;9.00;;;5.97;;
29162;SDS011;20331;53.144;8.208;2024-03-02T21:12:41;8.82;;;6.25;;
29162;SDS011;20331;53.144;8.208;2024-03-02T21:18:04;12.40;;;6.57;;
29162;SDS011;20331;53.144;8.208;2024-03-02T21:23:25;10.32;;;6.55;;
29162;SDS011;20331;53.144;8.208;2024-03-02T21:28:47;11.77;;;7.13;;
29162;SDS011;20331;53.144;8.208;2024-03-02T21:34:09;11.05;;;7.10;;
29162;SDS011;20331;53.144;8.208;2024-03-02T21:39:31;10.07;;;6.93;;
29162;SDS011;20331;53.144;8.208;2024-03-02T21:45:03;10.43;;;6.70;;
29162;SDS011;20331;53.144;8.208;2024-03-02T21:50:25;11.15;;;6.70;;
29162;SDS011;20331;53.144;8.208;2024-03-02T21:55:50;10.88;;;6.65;;
29162;SDS011;20331;53.144;8.208;2024-03-02T22:01:11;12.98;;;7.43;;
29162;SDS011;20331;53.144;8.208;2024-03-02T22:06:33;13.30;;;7.80;;
29162;SDS011;20331;53.144;8.208;2024-03-02T22:11:55;14.25;;;7.65;;
29162;SDS011;20331;53.144;8.208;2024-03-02T22:17:17;12.45;;;8.00;;
29162;SDS011;20331;53.144;8.208;2024-03-02T22:22:39;12.63;;;7.88;;
29162;SDS011;20331;53.144;8.208;2024-03-02T22:28:02;13.40;;;7.95;;
29162;SDS011;20331;53.144;8.208;2024-03-02T22:33:24;12.55;;;7.85;;
29162;SDS011;20331;53.144;8.208;2024-03-02T22:38:45;12.50;;;7.75;;
29162;SDS011;20331;53.144;8.208;2024-03-02T22:44:07;13.57;;;8.00;;
29162;SDS011;20331;53.144;8.208;2024-03-02T22:49:29;9.80;;;7.15;;
29162;SDS011;20331;53.144;8.208;2024-03-02T22:54:50;12.23;;;7.38;;
29162;SDS011;20331;53.144;8.208;2024-03-02T23:00:12;13.57;;;7.55;;
29162;SDS011;20331;53.144;8.208;2024-03-02T23:05:53;9.68;;;6.60;;
29162;SDS011;20331;53.144;8.208;2024-03-02T23:11:15;10.40;;;7.13;;
29162;SDS011;20331;53.144;8.208;2024-03-02T23:16:37;11.60;;;7.55;;
29162;SDS011;20331;53.144;8.208;2024-03-02T23:22:05;14.75;;;7.88;;
29162;SDS011;20331;53.144;8.208;2024-03-02T23:27:27;12.43;;;8.38;;
29162;SDS011;20331;53.144;8.208;2024-03-02T23:32:49;15.20;;;8.75;;
29162;SDS011;20331;53.144;8.208;2024-03-02T23:38:11;13.43;;;8.88;;
29162;SDS011;20331;53.144;8.208;2024-03-02T23:43:33;15.43;;;9.75;;
29162;SDS011;20331;53.144;8.208;2024-03-02T23:48:56;15.82;;;9.68;;
29162;SDS011;20331;53.144;8.208;2024-03-02T23:54:17;19.10;;;11.45;;
29162;SDS011;20331;53.144;8.208;2024-03-02T23:59:39;20.13;;;11.80;;
